フェアバンクス の空港の天気 - METARとTAF

フェアバンクス国際空港 ( PAFA / FAI ) - アメリカ アラスカ州フェアバンクス
飛行場実況気象(Metar)
観測時間10/19 19:53 AKDT (10/20 03:53 UTC)
風向・風速静穏 0m/s
視程10km以上
天気現象
全天の8割程度の雲 雲底高度 2130m
全天の8割程度の雲 雲底高度 4270m
気温0℃
湿度75%
気圧1002.4hPa
METARPAFA 200353Z 00000KT 10SM BKN070 BKN140 00/M04 A2958 RMK AO2 SLP024 T00001039 $
過去の天気等 Google飛行場航空写真 Wunderground天気予報

過去48時間のMETAR

飛行場予報(TAF)
発表時間: 10/19 15:38 AKDT (10/19 23:38 UTC)
予報対象時間: 19日16時 AKDT ~ 20日22時 AKDT
風向・風速北北東 2m/s
視程10km以上
全天の4割程度の雲 雲底高度 1520m
全天の8割程度の雲 雲底高度 3050m
19日22時 AKDT から
風向・風速不定 2m/s
視程10km以上
天気現象周辺でしゅう雨
全天の8割程度の雲 雲底高度 1220m
PAFA 192338Z 2000/2106 02004KT P6SM SCT050 BKN100
FM200600 VRB03KT P6SM VCSH BKN040